createdAt,value
2022-11-12T00:00:11.475Z,99.99
2022-11-12T00:01:11.444Z,99.99
2022-11-12T00:02:11.486Z,99.99
2022-11-12T00:03:12.445Z,99.99
2022-11-12T00:04:11.555Z,99.99
2022-11-12T00:05:11.707Z,99.99
2022-11-12T00:06:11.610Z,99.99
2022-11-12T00:07:12.689Z,99.99
2022-11-12T00:08:11.626Z,99.99
2022-11-12T00:09:11.631Z,99.99
2022-11-12T00:10:11.646Z,99.99
2022-11-12T00:11:11.582Z,99.99
2022-11-12T00:12:11.461Z,99.99
2022-11-12T00:13:11.560Z,99.99
2022-11-12T00:14:11.428Z,99.99
2022-11-12T00:15:11.374Z,99.99
2022-11-12T00:16:11.339Z,99.99
2022-11-12T00:17:11.329Z,99.99
2022-11-12T00:18:11.320Z,99.99
2022-11-12T00:19:11.312Z,99.99
2022-11-12T00:20:11.335Z,99.99
2022-11-12T00:21:11.298Z,99.99
2022-11-12T00:22:11.283Z,99.99
2022-11-12T00:23:11.279Z,99.99
2022-11-12T00:24:11.275Z,99.99
2022-11-12T00:25:11.296Z,99.99
2022-11-12T00:26:11.304Z,99.99
2022-11-12T00:27:11.247Z,99.99
2022-11-12T00:28:11.277Z,99.99
2022-11-12T00:29:11.228Z,99.99
2022-11-12T00:30:11.411Z,99.99
2022-11-12T00:31:11.280Z,99.99
2022-11-12T00:32:11.205Z,99.99
2022-11-12T00:33:11.195Z,99.99
2022-11-12T00:34:11.195Z,99.99
2022-11-12T00:35:13.855Z,99.99
2022-11-12T00:36:12.173Z,99.99
2022-11-12T00:37:11.166Z,99.99
2022-11-12T00:38:11.155Z,99.99
2022-11-12T00:39:11.881Z,99.99
2022-11-12T00:40:11.204Z,99.99
2022-11-12T00:41:11.128Z,99.99
2022-11-12T00:42:11.141Z,99.99
2022-11-12T00:43:11.107Z,99.99
2022-11-12T00:44:11.112Z,99.99
2022-11-12T00:45:11.135Z,99.99
2022-11-12T00:46:11.163Z,99.99
2022-11-12T00:47:11.078Z,99.99
2022-11-12T00:48:11.073Z,99.99
2022-11-12T00:49:11.078Z,99.99
2022-11-12T00:50:11.090Z,99.99
2022-11-12T00:51:11.060Z,99.99
2022-11-12T00:52:11.050Z,99.99
2022-11-12T00:53:11.037Z,99.99
2022-11-12T00:54:11.030Z,99.99
2022-11-12T00:55:11.042Z,99.99
2022-11-12T00:56:11.065Z,99.99
2022-11-12T00:57:10.999Z,99.99
2022-11-12T00:58:11.025Z,99.99
2022-11-12T00:59:10.983Z,99.99
2022-11-12T01:00:11.040Z,99.99
2022-11-12T01:01:10.999Z,99.99
2022-11-12T01:02:11.206Z,99.99
2022-11-12T01:03:10.955Z,99.99
2022-11-12T01:04:11.150Z,99.99
2022-11-12T01:05:10.963Z,99.99
2022-11-12T01:06:10.932Z,99.99
2022-11-12T01:07:11.031Z,99.99
2022-11-12T01:08:11.152Z,99.99
2022-11-12T01:09:10.905Z,99.99
2022-11-12T01:10:10.920Z,99.99
2022-11-12T01:11:10.885Z,99.99
2022-11-12T01:12:10.886Z,99.99
2022-11-12T01:13:10.865Z,99.99
2022-11-12T01:14:10.864Z,99.99
2022-11-12T01:15:10.886Z,99.99
2022-11-12T01:16:10.849Z,99.99
2022-11-12T01:17:10.840Z,99.99
2022-11-12T01:18:10.902Z,99.99
2022-11-12T01:19:10.827Z,99.99
2022-11-12T01:20:10.853Z,99.99
2022-11-12T01:21:10.814Z,99.99
2022-11-12T01:22:10.799Z,99.99
2022-11-12T01:23:10.802Z,99.99
2022-11-12T01:24:10.804Z,99.99
2022-11-12T01:25:10.947Z,99.99
2022-11-12T01:26:10.770Z,99.99
2022-11-12T01:27:10.759Z,99.99
2022-11-12T01:28:10.753Z,99.99
2022-11-12T01:29:10.743Z,99.99
2022-11-12T01:30:10.764Z,99.99
2022-11-12T01:31:10.758Z,99.99
2022-11-12T01:32:10.721Z,99.99
2022-11-12T01:33:10.836Z,99.99
2022-11-12T01:34:10.783Z,99.99
2022-11-12T01:35:10.729Z,99.99
2022-11-12T01:36:10.688Z,99.99
2022-11-12T01:37:10.683Z,99.99
2022-11-12T01:38:10.676Z,99.99
2022-11-12T01:39:10.671Z,99.99
2022-11-12T01:40:10.685Z,99.99
2022-11-12T01:41:10.658Z,99.99
2022-11-12T01:42:10.649Z,99.99
2022-11-12T01:43:10.637Z,99.99
2022-11-12T01:44:10.644Z,99.99
2022-11-12T01:45:10.652Z,99.99
2022-11-12T01:46:10.619Z,99.99
2022-11-12T01:47:10.605Z,99.99
2022-11-12T01:48:10.593Z,99.99
2022-11-12T01:49:10.586Z,99.99
2022-11-12T01:50:10.748Z,99.99
2022-11-12T01:51:10.568Z,99.99
2022-11-12T01:52:10.558Z,99.99
2022-11-12T01:53:10.549Z,99.99
2022-11-12T01:54:10.545Z,99.99
2022-11-12T01:55:10.570Z,99.99
2022-11-12T01:56:10.529Z,99.99
2022-11-12T01:57:10.521Z,99.99
2022-11-12T01:58:10.580Z,99.99
2022-11-12T01:59:10.499Z,99.99
2022-11-12T02:00:10.587Z,99.99
2022-11-12T02:01:10.586Z,99.99
2022-11-12T02:02:10.479Z,99.99
2022-11-12T02:03:10.584Z,99.99
2022-11-12T02:04:10.462Z,99.99
2022-11-12T02:05:10.480Z,99.99
2022-11-12T02:06:10.635Z,99.99
2022-11-12T02:07:10.524Z,99.99
2022-11-12T02:08:10.553Z,99.99
2022-11-12T02:09:10.499Z,99.99
2022-11-12T02:10:10.474Z,99.99
2022-11-12T02:11:10.385Z,99.99
2022-11-12T02:12:11.418Z,99.99
2022-11-12T02:13:10.384Z,99.99
2022-11-12T02:14:10.480Z,99.99
2022-11-12T02:15:10.387Z,99.99
2022-11-12T02:16:10.380Z,99.99
2022-11-12T02:17:10.342Z,99.99
2022-11-12T02:18:10.340Z,99.99
2022-11-12T02:19:10.332Z,99.99
2022-11-12T02:20:10.351Z,99.99
2022-11-12T02:21:10.316Z,99.99
2022-11-12T02:22:10.375Z,99.99
2022-11-12T02:23:10.301Z,99.99
2022-11-12T02:24:10.329Z,99.99
2022-11-12T02:25:10.465Z,99.99
2022-11-12T02:26:10.287Z,99.99
2022-11-12T02:27:10.274Z,99.99
2022-11-12T02:28:10.252Z,99.99
2022-11-12T02:29:10.252Z,99.99
2022-11-12T02:30:10.452Z,99.99
2022-11-12T02:31:10.230Z,99.99
2022-11-12T02:32:10.233Z,99.99
2022-11-12T02:33:10.223Z,99.99
2022-11-12T02:34:10.208Z,99.99
2022-11-12T02:35:10.299Z,99.99
2022-11-12T02:36:10.251Z,99.99
2022-11-12T02:37:10.181Z,99.99
2022-11-12T02:38:10.243Z,99.99
2022-11-12T02:39:10.171Z,99.99
2022-11-12T02:40:10.363Z,99.99
2022-11-12T02:41:10.151Z,99.99
2022-11-12T02:42:10.140Z,99.99
2022-11-12T02:43:10.136Z,99.99
2022-11-12T02:44:10.123Z,99.99
2022-11-12T02:45:10.140Z,99.99
2022-11-12T02:46:10.206Z,99.99
2022-11-12T02:47:10.097Z,99.99
2022-11-12T02:48:12.949Z,99.99
2022-11-12T02:49:11.082Z,99.99
2022-11-12T02:50:10.103Z,99.99
2022-11-12T02:51:10.123Z,99.99
2022-11-12T02:52:10.056Z,99.99
2022-11-12T02:53:10.057Z,99.99
2022-11-12T02:54:10.120Z,99.99
2022-11-12T02:55:10.070Z,99.99
2022-11-12T02:56:10.039Z,99.99
2022-11-12T02:57:10.029Z,99.99
2022-11-12T02:58:10.009Z,99.99
2022-11-12T02:59:11.003Z,99.99
2022-11-12T03:00:10.024Z,99.99
2022-11-12T03:01:10.043Z,99.99
2022-11-12T03:02:09.978Z,99.99
2022-11-12T03:03:09.966Z,99.99
2022-11-12T03:04:09.965Z,99.99
2022-11-12T03:05:09.975Z,99.99
2022-11-12T03:06:09.948Z,99.99
2022-11-12T03:07:09.965Z,99.99
2022-11-12T03:08:09.932Z,99.99
2022-11-12T03:09:09.988Z,99.99
2022-11-12T03:10:10.010Z,99.99
2022-11-12T03:11:09.895Z,99.99
2022-11-12T03:12:09.905Z,99.99
2022-11-12T03:13:09.883Z,99.99
2022-11-12T03:14:09.881Z,99.99
2022-11-12T03:15:09.896Z,99.99
2022-11-12T03:16:09.864Z,99.99
2022-11-12T03:17:09.851Z,99.99
2022-11-12T03:18:09.838Z,99.99
2022-11-12T03:19:09.836Z,99.99
2022-11-12T03:20:09.849Z,99.99
2022-11-12T03:21:09.817Z,99.99
2022-11-12T03:22:09.809Z,99.99
2022-11-12T03:23:09.850Z,99.99
2022-11-12T03:24:09.953Z,99.99
2022-11-12T03:25:09.819Z,99.99
2022-11-12T03:26:09.851Z,99.99
2022-11-12T03:27:09.775Z,99.99
2022-11-12T03:28:09.761Z,99.99
2022-11-12T03:29:09.754Z,99.99
2022-11-12T03:30:09.777Z,99.99
2022-11-12T03:31:09.731Z,99.99
2022-11-12T03:32:09.729Z,99.99
2022-11-12T03:33:09.722Z,99.99
2022-11-12T03:34:09.709Z,99.99
2022-11-12T03:35:09.722Z,99.99
2022-11-12T03:36:09.694Z,99.99
2022-11-12T03:37:09.731Z,99.99
2022-11-12T03:38:09.676Z,99.99
2022-11-12T03:39:09.669Z,99.99
2022-11-12T03:40:09.686Z,99.99
2022-11-12T03:41:09.649Z,99.99
2022-11-12T03:42:09.722Z,99.99
2022-11-12T03:43:09.629Z,99.99
2022-11-12T03:44:09.624Z,99.99
2022-11-12T03:45:09.654Z,99.99
2022-11-12T03:46:09.608Z,99.99
2022-11-12T03:47:10.633Z,99.99
2022-11-12T03:48:09.594Z,99.99
2022-11-12T03:49:09.586Z,99.99
2022-11-12T03:50:09.601Z,99.99
2022-11-12T03:51:09.562Z,99.99
2022-11-12T03:52:09.547Z,99.99
2022-11-12T03:53:09.541Z,99.99
2022-11-12T03:54:09.548Z,99.99
2022-11-12T03:55:09.560Z,99.99
2022-11-12T03:56:09.532Z,99.99
2022-11-12T03:57:09.558Z,99.99
2022-11-12T03:58:09.584Z,99.99
2022-11-12T03:59:09.506Z,99.99
2022-11-12T04:00:09.518Z,99.99
2022-11-12T04:01:09.507Z,99.99
2022-11-12T04:02:09.475Z,99.99
2022-11-12T04:03:09.464Z,99.99
2022-11-12T04:04:09.463Z,99.99
2022-11-12T04:05:09.518Z,99.99
2022-11-12T04:06:09.443Z,99.99
2022-11-12T04:07:09.566Z,99.99
2022-11-12T04:08:09.428Z,99.99
2022-11-12T04:09:09.425Z,99.99
2022-11-12T04:10:09.446Z,99.99
2022-11-12T04:11:09.400Z,99.99
2022-11-12T04:12:09.394Z,99.99
2022-11-12T04:13:09.386Z,99.99
2022-11-12T04:14:09.472Z,99.99
2022-11-12T04:15:09.410Z,99.99
2022-11-12T04:16:09.366Z,99.99
2022-11-12T04:17:09.356Z,99.99
2022-11-12T04:18:09.333Z,99.99
2022-11-12T04:19:09.328Z,99.99
2022-11-12T04:20:09.360Z,99.99
2022-11-12T04:21:09.312Z,99.99
2022-11-12T04:22:09.320Z,99.99
2022-11-12T04:23:09.305Z,99.99
2022-11-12T04:24:09.291Z,99.99
2022-11-12T04:25:09.323Z,99.99
2022-11-12T04:26:09.295Z,99.99
2022-11-12T04:27:09.271Z,99.99
2022-11-12T04:28:09.258Z,99.99
2022-11-12T04:29:09.248Z,99.99
2022-11-12T04:30:09.310Z,99.99
2022-11-12T04:31:09.267Z,99.99
2022-11-12T04:32:09.224Z,99.99
2022-11-12T04:33:09.216Z,99.99
2022-11-12T04:34:09.214Z,99.99
2022-11-12T04:35:09.245Z,99.99
2022-11-12T04:36:09.225Z,99.99
2022-11-12T04:37:09.189Z,99.99
2022-11-12T04:38:09.294Z,99.99
2022-11-12T04:39:09.165Z,99.99
2022-11-12T04:40:09.192Z,99.99
2022-11-12T04:41:09.153Z,99.99
2022-11-12T04:42:09.145Z,99.99
2022-11-12T04:43:09.139Z,99.99
2022-11-12T04:44:09.131Z,99.99
2022-11-12T04:45:09.246Z,99.99
2022-11-12T04:46:09.185Z,99.99
2022-11-12T04:47:09.114Z,99.99
2022-11-12T04:48:09.112Z,99.99
2022-11-12T04:49:09.093Z,99.99
2022-11-12T04:50:09.080Z,99.99
2022-11-12T04:51:09.105Z,99.99
2022-11-12T04:52:09.073Z,99.99
2022-11-12T04:53:09.057Z,99.99
2022-11-12T04:54:09.052Z,99.99
2022-11-12T04:55:09.048Z,99.99
2022-11-12T04:56:09.063Z,99.99
2022-11-12T04:57:09.027Z,99.99
2022-11-12T04:58:09.891Z,99.99
2022-11-12T04:59:10.010Z,99.99
2022-11-12T05:00:08.999Z,99.99
2022-11-12T05:01:09.083Z,99.99
2022-11-12T05:02:09.053Z,99.99
2022-11-12T05:03:08.982Z,99.99
2022-11-12T05:04:08.967Z,99.99
2022-11-12T05:05:08.963Z,99.99
2022-11-12T05:06:08.979Z,99.99
2022-11-12T05:07:08.965Z,99.99
2022-11-12T05:08:08.931Z,99.99
2022-11-12T05:09:08.916Z,99.99
2022-11-12T05:10:08.916Z,99.99
2022-11-12T05:11:12.834Z,99.99
2022-11-12T05:12:09.897Z,99.99
2022-11-12T05:13:08.912Z,99.99
2022-11-12T05:14:08.894Z,99.99
2022-11-12T05:15:08.878Z,99.99
2022-11-12T05:16:09.055Z,99.99
2022-11-12T05:17:08.862Z,99.99
2022-11-12T05:18:08.929Z,99.99
2022-11-12T05:19:08.843Z,99.99
2022-11-12T05:20:08.827Z,99.99
2022-11-12T05:21:09.851Z,99.99
2022-11-12T05:22:13.907Z,99.99
2022-11-12T05:23:10.811Z,99.99
2022-11-12T05:24:22.168Z,99.99
2022-11-12T05:25:09.795Z,99.99
2022-11-12T05:26:08.820Z,99.99
2022-11-12T05:27:08.775Z,99.99
2022-11-12T05:28:08.768Z,99.99
2022-11-12T05:29:09.142Z,99.99
2022-11-12T05:30:09.750Z,99.99
2022-11-12T05:31:08.776Z,99.99
2022-11-12T05:32:08.739Z,99.99
2022-11-12T05:33:08.719Z,99.99
2022-11-12T05:34:08.776Z,99.99
2022-11-12T05:35:08.707Z,99.99
2022-11-12T05:36:08.762Z,99.99
2022-11-12T05:37:08.689Z,99.99
2022-11-12T05:38:08.680Z,99.99
2022-11-12T05:39:08.680Z,99.99
2022-11-12T05:40:08.676Z,99.99
2022-11-12T05:41:08.793Z,99.99
2022-11-12T05:42:13.485Z,99.99
2022-11-12T05:43:10.822Z,99.99
2022-11-12T05:44:08.643Z,99.99
2022-11-12T05:45:08.680Z,99.99
2022-11-12T05:46:08.643Z,99.99
2022-11-12T05:47:08.608Z,99.99
2022-11-12T05:48:08.663Z,99.99
2022-11-12T05:49:08.593Z,99.99
2022-11-12T05:50:08.665Z,99.99
2022-11-12T05:51:13.417Z,99.99
2022-11-12T05:52:10.567Z,99.99
2022-11-12T05:53:08.570Z,99.99
2022-11-12T05:54:08.548Z,99.99
2022-11-12T05:55:08.549Z,99.99
2022-11-12T05:56:08.586Z,99.99
2022-11-12T05:57:08.525Z,99.99
2022-11-12T05:58:08.541Z,99.99
2022-11-12T05:59:08.512Z,99.99
2022-11-12T06:00:08.506Z,99.99
2022-11-12T06:01:08.502Z,99.99
2022-11-12T06:02:08.603Z,99.99
2022-11-12T06:03:08.484Z,99.99
2022-11-12T06:04:08.466Z,99.99
2022-11-12T06:05:08.463Z,99.99
2022-11-12T06:06:08.575Z,99.99
2022-11-12T06:07:08.496Z,99.99
2022-11-12T06:08:08.431Z,99.99
2022-11-12T06:09:08.432Z,99.99
2022-11-12T06:10:08.418Z,99.99
2022-11-12T06:11:08.411Z,99.99
2022-11-12T06:12:08.432Z,99.99
2022-11-12T06:13:08.393Z,99.99
2022-11-12T06:14:08.382Z,99.99
2022-11-12T06:15:08.377Z,99.99
2022-11-12T06:16:08.371Z,99.99
2022-11-12T06:17:08.410Z,99.99
2022-11-12T06:18:08.356Z,99.99
2022-11-12T06:19:08.349Z,99.99
2022-11-12T06:20:08.332Z,99.99
2022-11-12T06:21:09.329Z,99.99
2022-11-12T06:22:08.423Z,99.99
2022-11-12T06:23:08.315Z,99.99
2022-11-12T06:24:08.305Z,99.99
2022-11-12T06:25:08.304Z,99.99
2022-11-12T06:26:08.287Z,99.99
2022-11-12T06:27:08.306Z,99.99
2022-11-12T06:28:08.329Z,99.99
2022-11-12T06:29:08.251Z,99.99
2022-11-12T06:30:08.255Z,99.99
2022-11-12T06:31:08.248Z,99.99
2022-11-12T06:32:08.269Z,99.99
2022-11-12T06:33:08.224Z,99.99
2022-11-12T06:34:08.223Z,99.99
2022-11-12T06:35:08.212Z,99.99
2022-11-12T06:36:08.203Z,99.99
2022-11-12T06:37:08.230Z,99.99
2022-11-12T06:38:08.265Z,99.99
2022-11-12T06:39:08.184Z,99.99
2022-11-12T06:40:08.171Z,99.99
2022-11-12T06:41:08.168Z,99.99
2022-11-12T06:42:08.189Z,99.99
2022-11-12T06:43:08.349Z,99.99
2022-11-12T06:44:08.138Z,99.99
2022-11-12T06:45:08.124Z,99.99
2022-11-12T06:46:08.117Z,99.99
2022-11-12T06:47:08.125Z,99.99
2022-11-12T06:48:09.102Z,99.99
2022-11-12T06:49:08.098Z,99.99
2022-11-12T06:50:08.083Z,99.99
2022-11-12T06:51:08.077Z,99.99
2022-11-12T06:52:11.114Z,99.99
2022-11-12T06:53:09.059Z,99.99
2022-11-12T06:54:08.124Z,99.99
2022-11-12T06:55:08.041Z,99.99
2022-11-12T06:56:08.036Z,99.99
2022-11-12T06:57:08.057Z,99.99
2022-11-12T06:58:08.026Z,99.99
2022-11-12T06:59:08.014Z,99.99
2022-11-12T07:00:08.007Z,99.99
2022-11-12T07:01:11.466Z,99.99
2022-11-12T07:02:09.075Z,99.99
2022-11-12T07:03:07.987Z,99.99
2022-11-12T07:04:07.969Z,99.99
2022-11-12T07:05:07.959Z,99.99
2022-11-12T07:06:07.955Z,99.99
2022-11-12T07:07:10.579Z,99.99
2022-11-12T07:08:08.935Z,99.99
2022-11-12T07:09:07.928Z,99.99
2022-11-12T07:10:07.987Z,99.99
2022-11-12T07:11:07.908Z,99.99
2022-11-12T07:12:07.901Z,99.99
2022-11-12T07:13:07.927Z,99.99
2022-11-12T07:14:07.879Z,99.99
2022-11-12T07:15:07.872Z,99.99
2022-11-12T07:16:07.868Z,99.99
2022-11-12T07:17:07.851Z,99.99
2022-11-12T07:18:07.926Z,99.99
2022-11-12T07:19:07.839Z,99.99
2022-11-12T07:20:07.830Z,99.99
2022-11-12T07:21:07.825Z,99.99
2022-11-12T07:22:07.811Z,99.99
2022-11-12T07:23:07.847Z,99.99
2022-11-12T07:24:07.798Z,99.99
2022-11-12T07:25:07.786Z,99.99
2022-11-12T07:26:08.851Z,99.99
2022-11-12T07:27:07.769Z,99.99
2022-11-12T07:28:07.791Z,99.99
2022-11-12T07:29:07.760Z,99.99
2022-11-12T07:30:07.746Z,99.99
2022-11-12T07:31:07.812Z,99.99
2022-11-12T07:32:07.728Z,99.99
2022-11-12T07:33:07.743Z,99.99
2022-11-12T07:34:07.711Z,99.99
2022-11-12T07:35:07.706Z,99.99
2022-11-12T07:36:07.691Z,99.99
2022-11-12T07:37:07.683Z,99.99
2022-11-12T07:38:07.702Z,99.99
2022-11-12T07:39:07.676Z,99.99
2022-11-12T07:40:07.655Z,99.99
2022-11-12T07:41:07.663Z,99.99
2022-11-12T07:42:07.742Z,99.99
2022-11-12T07:43:07.657Z,99.99
2022-11-12T07:44:08.623Z,99.99
2022-11-12T07:45:07.616Z,99.99
2022-11-12T07:46:10.648Z,99.99
2022-11-12T07:47:08.600Z,99.99
2022-11-12T07:48:07.620Z,99.99
2022-11-12T07:49:07.589Z,99.99
2022-11-12T07:50:07.580Z,99.99
2022-11-12T07:51:07.564Z,99.99
2022-11-12T07:52:07.563Z,99.99
2022-11-12T07:53:07.578Z,99.99
2022-11-12T07:54:07.545Z,99.99
2022-11-12T07:55:07.537Z,99.99
2022-11-12T07:56:07.528Z,99.99
2022-11-12T07:57:07.525Z,99.99
2022-11-12T07:58:07.612Z,99.99
2022-11-12T07:59:07.504Z,99.99
2022-11-12T08:00:07.495Z,99.99
2022-11-12T08:01:07.511Z,99.99
2022-11-12T08:02:07.483Z,99.99
2022-11-12T08:03:07.501Z,99.99
2022-11-12T08:04:07.466Z,99.99
2022-11-12T08:05:13.712Z,99.99
2022-11-12T08:06:09.451Z,99.99
2022-11-12T08:07:07.525Z,99.99
2022-11-12T08:08:07.566Z,99.99
2022-11-12T08:09:07.423Z,99.99
2022-11-12T08:10:07.418Z,99.99
2022-11-12T08:11:07.409Z,99.99
2022-11-12T08:12:07.411Z,99.99
2022-11-12T08:13:07.388Z,99.99
2022-11-12T08:14:07.477Z,99.99
2022-11-12T08:15:07.367Z,99.99
2022-11-12T08:16:08.364Z,99.99
2022-11-12T08:17:07.356Z,99.99
2022-11-12T08:18:07.341Z,99.99
2022-11-12T08:19:08.400Z,99.99
2022-11-12T08:20:07.328Z,99.99
2022-11-12T08:21:07.319Z,99.99
2022-11-12T08:22:07.314Z,99.99
2022-11-12T08:23:07.301Z,99.99
2022-11-12T08:24:07.325Z,99.99
2022-11-12T08:25:07.282Z,99.99
2022-11-12T08:26:07.294Z,99.99
2022-11-12T08:27:08.275Z,99.99
2022-11-12T08:28:07.288Z,99.99
2022-11-12T08:29:08.791Z,99.99
2022-11-12T08:30:08.316Z,99.99
2022-11-12T08:31:07.232Z,99.99
2022-11-12T08:32:08.225Z,99.99
2022-11-12T08:33:07.224Z,99.99
2022-11-12T08:34:07.250Z,99.99
2022-11-12T08:35:07.212Z,99.99
2022-11-12T08:36:07.226Z,99.99
2022-11-12T08:37:07.185Z,99.99
2022-11-12T08:38:07.185Z,98.67
2022-11-12T08:39:07.200Z,97.58
2022-11-12T08:40:07.165Z,98.24
2022-11-12T08:41:07.158Z,98.70
2022-11-12T08:42:07.146Z,99.52
2022-11-12T08:43:07.149Z,99.99
2022-11-12T08:44:08.682Z,99.58
2022-11-12T08:45:08.129Z,99.99
2022-11-12T08:46:07.184Z,99.48
2022-11-12T08:47:07.115Z,99.99
2022-11-12T08:48:07.101Z,99.99
2022-11-12T08:49:07.130Z,99.94
2022-11-12T08:50:07.098Z,99.99
2022-11-12T08:51:07.072Z,99.99
2022-11-12T08:52:08.073Z,99.99
2022-11-12T08:53:07.061Z,99.99
2022-11-12T08:54:07.084Z,98.57
2022-11-12T08:55:07.041Z,97.74
2022-11-12T08:56:07.034Z,97.60
2022-11-12T08:57:07.028Z,97.28
2022-11-12T08:58:07.025Z,95.90
2022-11-12T08:59:07.651Z,96.52
2022-11-12T09:00:08.007Z,95.90
2022-11-12T09:01:06.992Z,94.83
2022-11-12T09:02:07.049Z,94.67
2022-11-12T09:03:06.985Z,94.67
2022-11-12T09:04:06.997Z,95.89
2022-11-12T09:05:06.956Z,97.53
2022-11-12T09:06:06.951Z,97.23
2022-11-12T09:07:09.681Z,97.13
2022-11-12T09:08:07.991Z,96.30
2022-11-12T09:09:06.957Z,96.56
2022-11-12T09:10:06.910Z,96.11
2022-11-12T09:11:06.920Z,95.86
2022-11-12T09:12:14.964Z,95.09
2022-11-12T09:13:08.885Z,94.58
2022-11-12T09:14:06.958Z,94.37
2022-11-12T09:15:36.248Z,94.39
2022-11-12T09:16:08.868Z,93.57
2022-11-12T09:17:06.858Z,93.20
2022-11-12T09:18:06.908Z,94.54
2022-11-12T09:19:07.876Z,93.26
2022-11-12T09:20:06.923Z,94.08
2022-11-12T09:21:06.828Z,92.64
2022-11-12T09:22:06.819Z,92.03
2022-11-12T09:23:06.818Z,91.72
2022-11-12T09:24:06.795Z,92.13
2022-11-12T09:25:06.819Z,92.08
2022-11-12T09:26:06.791Z,92.91
2022-11-12T09:27:06.780Z,92.60
2022-11-12T09:28:06.765Z,92.60
2022-11-12T09:29:06.788Z,91.99
2022-11-12T09:30:06.775Z,91.99
2022-11-12T09:31:06.745Z,91.27
2022-11-12T09:32:06.737Z,90.09
2022-11-12T09:33:06.730Z,90.09
2022-11-12T09:34:06.787Z,89.75
2022-11-12T09:35:06.739Z,90.22
2022-11-12T09:36:06.700Z,89.66
2022-11-12T09:37:06.703Z,89.15
2022-11-12T09:38:06.686Z,89.56
2022-11-12T09:39:06.680Z,89.31
2022-11-12T09:40:06.702Z,88.04
2022-11-12T09:41:06.668Z,89.12
2022-11-12T09:42:06.656Z,88.00
2022-11-12T09:43:06.647Z,87.55
2022-11-12T09:44:06.638Z,86.22
2022-11-12T09:45:06.658Z,86.08
2022-11-12T09:46:26.607Z,84.98
2022-11-12T09:47:08.613Z,84.16
2022-11-12T09:48:06.601Z,84.22
2022-11-12T09:49:06.604Z,82.49
2022-11-12T09:50:06.713Z,81.67
2022-11-12T09:51:06.579Z,81.90
2022-11-12T09:52:06.570Z,82.08
2022-11-12T09:53:06.568Z,82.01
2022-11-12T09:54:06.563Z,82.63
2022-11-12T09:55:06.576Z,82.42
2022-11-12T09:56:06.540Z,82.63
2022-11-12T09:57:06.528Z,83.54
2022-11-12T09:58:06.521Z,85.28
2022-11-12T09:59:06.512Z,83.92
2022-11-12T10:00:06.541Z,82.69
2022-11-12T10:01:06.500Z,81.73
2022-11-12T10:02:06.540Z,82.75
2022-11-12T10:03:06.489Z,82.04
2022-11-12T10:04:06.488Z,81.98
2022-11-12T10:05:06.500Z,82.28
2022-11-12T10:06:10.369Z,82.24
2022-11-12T10:07:07.478Z,82.31
2022-11-12T10:08:06.445Z,81.80
2022-11-12T10:09:06.435Z,81.70
2022-11-12T10:10:06.452Z,81.80
2022-11-12T10:11:06.426Z,82.21
2022-11-12T10:12:06.410Z,81.90
2022-11-12T10:13:06.405Z,82.31
2022-11-12T10:14:06.397Z,82.00
2022-11-12T10:15:06.417Z,81.80
2022-11-12T10:16:06.376Z,81.45
2022-11-12T10:17:06.364Z,80.94
2022-11-12T10:18:06.365Z,80.70
2022-11-12T10:19:06.367Z,80.54
2022-11-12T10:20:06.467Z,80.50
2022-11-12T10:21:06.342Z,79.44
2022-11-12T10:22:06.407Z,78.19
2022-11-12T10:23:06.321Z,77.67
2022-11-12T10:24:06.314Z,79.71
2022-11-12T10:25:06.491Z,79.47
2022-11-12T10:26:07.328Z,77.20
2022-11-12T10:27:06.292Z,75.26
2022-11-12T10:28:06.285Z,75.63
2022-11-12T10:29:06.302Z,74.44
2022-11-12T10:30:06.271Z,73.70
2022-11-12T10:31:06.259Z,72.28
2022-11-12T10:32:06.244Z,73.29
2022-11-12T10:33:06.235Z,73.63
2022-11-12T10:34:06.262Z,75.05
2022-11-12T10:35:06.232Z,73.29
2022-11-12T10:36:06.248Z,74.14
2022-11-12T10:37:06.210Z,75.19
2022-11-12T10:38:06.272Z,75.63
2022-11-12T10:39:06.211Z,76.81
2022-11-12T10:40:06.183Z,76.44
2022-11-12T10:41:10.628Z,74.92
2022-11-12T10:42:07.170Z,74.28
2022-11-12T10:43:06.153Z,75.49
2022-11-12T10:44:06.167Z,74.55
2022-11-12T10:45:06.137Z,75.80
2022-11-12T10:46:06.122Z,75.16
2022-11-12T10:47:06.110Z,75.87
2022-11-12T10:48:06.107Z,75.76
2022-11-12T10:49:06.131Z,75.26
2022-11-12T10:50:06.098Z,75.43
2022-11-12T10:51:06.080Z,75.40
2022-11-12T10:52:06.057Z,76.51
2022-11-12T10:53:07.085Z,75.80
2022-11-12T10:54:06.146Z,75.36
2022-11-12T10:55:07.046Z,74.88
2022-11-12T10:56:06.040Z,75.67
2022-11-12T10:57:06.036Z,74.92
2022-11-12T10:58:06.020Z,75.43
2022-11-12T10:59:06.052Z,74.38
2022-11-12T11:00:06.047Z,73.02
2022-11-12T11:01:06.000Z,73.02
2022-11-12T11:02:06.000Z,73.57
2022-11-12T11:03:05.981Z,73.73
2022-11-12T11:04:06.086Z,74.04
2022-11-12T11:05:05.976Z,75.16
2022-11-12T11:06:05.955Z,74.27
2022-11-12T11:07:06.128Z,73.57
2022-11-12T11:08:05.947Z,73.53
2022-11-12T11:09:05.967Z,75.16
2022-11-12T11:10:05.998Z,76.92
2022-11-12T11:11:05.922Z,76.72
2022-11-12T11:12:05.908Z,75.16
2022-11-12T11:13:05.898Z,75.49
2022-11-12T11:14:05.929Z,74.92
2022-11-12T11:15:05.889Z,73.19
2022-11-12T11:16:05.935Z,73.26
2022-11-12T11:17:05.867Z,73.49
2022-11-12T11:18:05.860Z,73.49
2022-11-12T11:19:05.856Z,73.73
2022-11-12T11:20:05.877Z,73.53
2022-11-12T11:21:05.835Z,73.73
2022-11-12T11:22:05.835Z,73.66
2022-11-12T11:23:05.814Z,73.49
2022-11-12T11:24:05.816Z,74.07
2022-11-12T11:25:05.829Z,75.05
2022-11-12T11:26:05.865Z,75.05
2022-11-12T11:27:05.784Z,74.71
2022-11-12T11:28:05.768Z,75.70
2022-11-12T11:29:05.764Z,76.51
2022-11-12T11:30:05.789Z,76.10
2022-11-12T11:31:06.753Z,75.46
2022-11-12T11:32:05.747Z,74.51
2022-11-12T11:33:05.737Z,75.01
2022-11-12T11:34:05.730Z,76.31
2022-11-12T11:35:05.747Z,76.71
2022-11-12T11:36:05.708Z,76.95
2022-11-12T11:37:05.704Z,76.61
2022-11-12T11:38:05.696Z,75.66
2022-11-12T11:39:05.687Z,75.18
2022-11-12T11:40:05.718Z,74.98
2022-11-12T11:41:05.670Z,75.25
2022-11-12T11:42:05.728Z,75.25
2022-11-12T11:43:06.653Z,75.86
2022-11-12T11:44:08.824Z,75.90
2022-11-12T11:45:06.671Z,76.61
2022-11-12T11:46:05.621Z,77.56
2022-11-12T11:47:05.621Z,77.05
2022-11-12T11:48:05.613Z,77.80
2022-11-12T11:49:05.601Z,78.00
2022-11-12T11:50:05.636Z,77.80
2022-11-12T11:51:05.594Z,78.00
2022-11-12T11:52:05.580Z,78.81
2022-11-12T11:53:05.567Z,79.56
2022-11-12T11:54:05.562Z,78.85
2022-11-12T11:55:05.585Z,78.71
2022-11-12T11:56:05.633Z,79.22
2022-11-12T11:57:05.534Z,79.46
2022-11-12T11:58:05.601Z,79.97
2022-11-12T11:59:05.523Z,79.90
2022-11-12T12:00:05.543Z,80.76
2022-11-12T12:01:05.504Z,81.60
2022-11-12T12:02:05.491Z,81.51
2022-11-12T12:03:05.575Z,81.71
2022-11-12T12:04:05.534Z,82.32
2022-11-12T12:05:05.475Z,81.77
2022-11-12T12:06:05.462Z,81.57
2022-11-12T12:07:05.542Z,82.07
2022-11-12T12:08:05.450Z,81.43
2022-11-12T12:09:05.467Z,81.33
2022-11-12T12:10:09.366Z,81.23
2022-11-12T12:11:08.702Z,80.62
2022-11-12T12:12:06.417Z,81.16
2022-11-12T12:13:05.407Z,80.72
2022-11-12T12:14:05.593Z,80.17
2022-11-12T12:15:05.390Z,80.21
2022-11-12T12:16:05.384Z,79.66
2022-11-12T12:17:05.381Z,79.46
2022-11-12T12:18:05.373Z,81.12
2022-11-12T12:19:05.361Z,79.77
2022-11-12T12:20:05.385Z,80.00
2022-11-12T12:21:05.348Z,80.00
2022-11-12T12:22:05.334Z,79.80
2022-11-12T12:23:05.327Z,79.97
2022-11-12T12:24:05.320Z,79.56
2022-11-12T12:25:05.356Z,79.25
2022-11-12T12:26:05.307Z,78.91
2022-11-12T12:27:05.296Z,79.77
2022-11-12T12:28:05.298Z,79.66
2022-11-12T12:29:05.275Z,79.32
2022-11-12T12:30:05.361Z,79.12
2022-11-12T12:31:05.257Z,78.41
2022-11-12T12:32:05.255Z,78.78
2022-11-12T12:33:05.245Z,77.25
2022-11-12T12:34:05.280Z,77.86
2022-11-12T12:35:05.222Z,76.95
2022-11-12T12:36:05.214Z,77.52
2022-11-12T12:37:05.209Z,76.98
2022-11-12T12:38:05.200Z,76.67
2022-11-12T12:39:05.226Z,76.91
2022-11-12T12:40:05.177Z,77.45
2022-11-12T12:41:05.170Z,78.81
2022-11-12T12:42:05.171Z,78.03
2022-11-12T12:43:06.164Z,76.71
2022-11-12T12:44:05.158Z,77.28
2022-11-12T12:45:05.339Z,77.01
2022-11-12T12:46:05.204Z,76.81
2022-11-12T12:47:05.126Z,77.97
2022-11-12T12:48:05.123Z,77.86
2022-11-12T12:49:05.115Z,78.17
2022-11-12T12:50:05.130Z,79.28
2022-11-12T12:51:05.097Z,78.98
2022-11-12T12:52:05.090Z,79.52